createdAt,value
2023-03-29T07:01:49.783Z,2.30
2023-03-29T07:04:54.320Z,2.39
2023-03-29T07:07:57.421Z,2.49
2023-03-29T07:11:01.557Z,2.76
2023-03-29T07:14:05.326Z,3.00
2023-03-29T07:17:10.153Z,3.15
2023-03-29T07:20:14.412Z,3.31
2023-03-29T07:23:18.067Z,3.50
2023-03-29T07:26:28.652Z,3.51
2023-03-29T07:29:33.074Z,3.45
2023-03-29T07:32:37.027Z,3.56
2023-03-29T07:35:43.411Z,3.49
2023-03-29T07:38:45.907Z,3.64
2023-03-29T07:41:49.507Z,3.83
2023-03-29T07:44:54.199Z,3.75
2023-03-29T07:47:59.124Z,4.01
2023-03-29T07:51:02.220Z,4.12
2023-03-29T07:54:06.446Z,3.96
2023-03-29T07:57:11.057Z,4.22
2023-03-29T08:00:16.297Z,4.18
2023-03-29T08:03:21.732Z,4.20
2023-03-29T08:06:26.638Z,4.15
2023-03-29T08:09:30.109Z,4.20
2023-03-29T08:12:32.655Z,4.26
2023-03-29T08:15:35.752Z,4.53
2023-03-29T08:18:39.702Z,4.72
2023-03-29T08:21:42.491Z,5.02
2023-03-29T08:24:45.120Z,5.00
2023-03-29T08:27:48.070Z,5.07
2023-03-29T08:30:51.249Z,5.46
2023-03-29T08:33:55.620Z,5.34
2023-03-29T08:37:00.516Z,5.51
2023-03-29T08:40:05.564Z,5.48
2023-03-29T08:43:31.920Z,5.49
2023-03-29T08:46:39.404Z,5.32
2023-03-29T08:49:45.716Z,5.24
2023-03-29T08:52:49.945Z,5.28
2023-03-29T08:55:53.568Z,5.61
2023-03-29T08:58:57.074Z,5.62
2023-03-29T09:02:00.514Z,5.81
2023-03-29T09:05:08.645Z,6.09
2023-03-29T09:08:13.502Z,6.39
2023-03-29T09:11:27.522Z,6.37
2023-03-29T09:14:37.297Z,6.43
2023-03-29T09:17:49.616Z,6.14
2023-03-29T09:20:56.858Z,6.46
2023-03-29T09:24:30.875Z,6.15
2023-03-29T09:27:34.953Z,6.32
2023-03-29T09:30:39.939Z,6.41
2023-03-29T09:33:44.955Z,6.34
2023-03-29T09:36:52.420Z,6.35
2023-03-29T09:39:56.793Z,6.22
2023-03-29T09:43:00.894Z,6.33
2023-03-29T09:46:04.199Z,6.40
2023-03-29T09:49:12.375Z,6.50
2023-03-29T09:52:17.038Z,7.02
2023-03-29T09:55:21.811Z,6.79
2023-03-29T09:58:26.015Z,6.76
2023-03-29T10:01:35.469Z,6.69
2023-03-29T10:04:39.219Z,6.98
2023-03-29T10:07:46.248Z,7.12
2023-03-29T10:10:49.716Z,7.29
2023-03-29T10:13:54.954Z,7.11
2023-03-29T10:16:57.787Z,7.20
2023-03-29T10:20:04.207Z,7.02
2023-03-29T10:23:09.084Z,6.82
2023-03-29T10:26:18.171Z,6.88
2023-03-29T10:29:20.948Z,7.10
2023-03-29T10:32:27.121Z,7.02
2023-03-29T10:35:30.569Z,7.07
2023-03-29T10:38:34.376Z,7.08
2023-03-29T10:41:36.943Z,7.05
2023-03-29T10:44:39.723Z,6.95
2023-03-29T10:47:42.461Z,6.94
2023-03-29T10:50:48.645Z,6.97
2023-03-29T10:53:52.727Z,7.12
2023-03-29T10:56:55.682Z,7.17
2023-03-29T11:00:01.111Z,7.38
2023-03-29T11:03:14.274Z,7.35
2023-03-29T11:06:20.926Z,7.44
2023-03-29T11:09:27.559Z,7.61
2023-03-29T11:12:33.805Z,7.72
2023-03-29T11:15:42.300Z,8.10
2023-03-29T11:19:04.115Z,8.01
2023-03-29T11:22:08.730Z,8.12
2023-03-29T11:25:23.063Z,8.18
2023-03-29T11:28:29.335Z,8.58
2023-03-29T11:31:38.342Z,8.63
2023-03-29T11:34:49.594Z,8.78
2023-03-29T11:37:55.731Z,8.99
2023-03-29T11:41:02.434Z,8.94
2023-03-29T11:44:06.278Z,8.86
2023-03-29T11:47:09.839Z,9.03
2023-03-29T11:50:16.478Z,8.88
2023-03-29T11:53:21.591Z,8.74
2023-03-29T11:56:29.147Z,8.86
2023-03-29T11:59:32.963Z,8.92
2023-03-29T12:02:36.750Z,8.98
2023-03-29T12:05:42.141Z,9.29
2023-03-29T12:08:46.154Z,9.45
2023-03-29T12:11:51.318Z,9.51
2023-03-29T12:14:57.221Z,9.69
2023-03-29T12:18:03.238Z,9.48
2023-03-29T12:21:09.058Z,9.59
2023-03-29T12:24:12.640Z,9.69
2023-03-29T12:27:21.251Z,9.47
2023-03-29T12:30:38.367Z,9.60
2023-03-29T12:34:05.019Z,9.71
2023-03-29T12:37:24.994Z,9.54
2023-03-29T12:40:38.777Z,9.40
2023-03-29T12:43:54.421Z,9.12
2023-03-29T12:46:58.784Z,9.23
2023-03-29T12:50:01.333Z,9.44
2023-03-29T12:53:05.326Z,9.26
2023-03-29T12:56:13.811Z,9.10
2023-03-29T12:59:25.691Z,9.28
2023-03-29T13:02:35.546Z,9.30
2023-03-29T13:05:38.118Z,9.55
2023-03-29T13:08:41.894Z,9.43
2023-03-29T13:11:44.334Z,9.21
2023-03-29T13:14:50.940Z,9.00
2023-03-29T13:17:57.141Z,9.02
2023-03-29T13:21:04.091Z,9.43
2023-03-29T13:24:15.496Z,9.33
2023-03-29T13:27:25.228Z,9.14
2023-03-29T13:30:35.887Z,9.27
2023-03-29T13:33:44.958Z,9.28
2023-03-29T13:36:53.959Z,9.51
2023-03-29T13:39:57.219Z,9.40
2023-03-29T13:43:00.305Z,9.47
2023-03-29T13:46:18.225Z,9.59
2023-03-29T13:49:21.388Z,9.65
2023-03-29T13:52:26.438Z,10.01
2023-03-29T13:55:32.754Z,10.17
2023-03-29T13:58:38.085Z,10.22
2023-03-29T14:01:45.741Z,10.02
2023-03-29T14:04:49.462Z,9.84
2023-03-29T14:07:53.046Z,9.66
2023-03-29T14:10:55.844Z,9.64
2023-03-29T14:13:58.800Z,9.37
2023-03-29T14:17:03.967Z,9.48
2023-03-29T14:20:09.643Z,9.64
2023-03-29T14:23:14.993Z,9.54
2023-03-29T14:26:19.957Z,9.56
2023-03-29T14:29:25.374Z,9.56
2023-03-29T14:32:30.344Z,9.62
2023-03-29T14:35:33.300Z,9.63
2023-03-29T14:38:36.420Z,9.79
2023-03-29T14:41:39.212Z,9.86
2023-03-29T14:44:41.640Z,9.72
2023-03-29T14:47:45.988Z,9.62
2023-03-29T14:50:48.605Z,9.81
2023-03-29T14:53:51.261Z,9.61
2023-03-29T14:56:53.885Z,9.39
2023-03-29T14:59:59.817Z,9.24
2023-03-29T15:03:03.852Z,9.27
2023-03-29T15:06:07.287Z,9.20
